Time;durP1;ratioP1;P1;durP2;ratioP2;P2;SDS_P1;SDS_P2;PMS_P1;PMS_P2;Temp;Humidity;BMP_temperature;BMP_pressure;BME280_temperature;BME280_humidity;BME280_pressure;Samples;Min_cycle;Max_cycle;Signal;HPM_P1;HPM_P2
2022/04/01 00:00:00;;;;;;;6.97;2.78;;;;;;;;;;5074486;28;20128;-65
2022/04/01 00:02:26;;;;;;;6.03;2.70;;;;;;;;;;5083688;28;20055;-65
2022/04/01 00:04:53;;;;;;;4.45;2.40;;;;;;;;;;5081554;28;20052;-65
2022/04/01 00:07:19;;;;;;;5.90;2.30;;;;;;;;;;5070891;28;20860;-65
2022/04/01 00:09:45;;;;;;;4.70;2.40;;;;;;;;;;5086667;28;20057;-65
2022/04/01 00:12:12;;;;;;;4.05;1.90;;;;;;;;;;5086028;28;20107;-65
2022/04/01 00:14:38;;;;;;;4.43;2.05;;;;;;;;;;5082687;28;20052;-65
2022/04/01 00:17:05;;;;;;;3.75;2.20;;;;;;;;;;5085343;28;20139;-65
2022/04/01 00:19:31;;;;;;;4.38;2.22;;;;;;;;;;5084363;28;20151;-65
2022/04/01 00:21:58;;;;;;;4.65;2.45;;;;;;;;;;5082621;28;20533;-65
2022/04/01 00:24:25;;;;;;;7.45;3.15;;;;;;;;;;5078236;28;20155;-65
2022/04/01 00:26:51;;;;;;;7.32;2.72;;;;;;;;;;5078340;28;20045;-65
2022/04/01 00:29:17;;;;;;;4.90;2.40;;;;;;;;;;5074513;28;20578;-65
2022/04/01 00:31:45;;;;;;;4.63;2.05;;;;;;;;;;5071323;28;20154;-64
2022/04/01 00:34:17;;;;;;;5.93;2.60;;;;;;;;;;5086156;28;20056;-65
2022/04/01 00:36:48;;;;;;;4.20;2.10;;;;;;;;;;5080746;28;20869;-65
2022/04/01 00:39:16;;;;;;;4.95;2.58;;;;;;;;;;5090047;28;20075;-64
2022/04/01 00:41:44;;;;;;;5.05;2.35;;;;;;;;;;5069342;28;20144;-65
2022/04/01 00:44:29;;;;;;;5.60;2.33;;;;;;;;;;5069884;28;20149;-65
2022/04/01 00:46:57;;;;;;;4.15;2.08;;;;;;;;;;5082308;28;20140;-65
2022/04/01 00:49:24;;;;;;;4.30;2.10;;;;;;;;;;5080937;28;20052;-65
2022/04/01 00:51:51;;;;;;;4.15;1.90;;;;;;;;;;5087924;28;20570;-65
2022/04/01 00:54:18;;;;;;;5.43;2.22;;;;;;;;;;5069654;28;20080;-64
2022/04/01 00:56:44;;;;;;;5.32;2.55;;;;;;;;;;5079118;28;20163;-64
2022/04/01 00:59:12;;;;;;;6.20;2.50;;;;;;;;;;5089571;28;20059;-66
2022/04/01 01:01:45;;;;;;;3.08;1.77;;;;;;;;;;5072593;28;20056;-66
2022/04/01 01:04:13;;;;;;;5.47;2.55;;;;;;;;;;5089376;28;20495;-67
2022/04/01 01:06:41;;;;;;;4.82;2.15;;;;;;;;;;5090464;28;20060;-64
2022/04/01 01:09:08;;;;;;;4.78;2.25;;;;;;;;;;5071808;28;20168;-67
2022/04/01 01:11:35;;;;;;;4.90;2.22;;;;;;;;;;5079914;28;20104;-66
2022/04/01 01:14:07;;;;;;;5.43;2.33;;;;;;;;;;5087798;28;20080;-67
2022/04/01 01:16:34;;;;;;;5.32;2.88;;;;;;;;;;5089616;28;20110;-66
2022/04/01 01:19:05;;;;;;;6.93;2.70;;;;;;;;;;5086209;28;20061;-66
2022/04/01 01:21:32;;;;;;;6.15;3.13;;;;;;;;;;5077192;28;20049;-66
2022/04/01 01:23:59;;;;;;;7.60;2.67;;;;;;;;;;5068341;28;20595;-67
2022/04/01 01:26:26;;;;;;;7.10;3.60;;;;;;;;;;5078140;28;20110;-66
2022/04/01 01:28:54;;;;;;;6.15;3.17;;;;;;;;;;5089106;28;20052;-66
2022/04/01 01:31:21;;;;;;;6.22;3.15;;;;;;;;;;5079912;28;20119;-67
2022/04/01 01:33:48;;;;;;;5.95;3.38;;;;;;;;;;5084002;28;20531;-66
2022/04/01 01:36:14;;;;;;;6.05;2.78;;;;;;;;;;5081772;28;20124;-66
2022/04/01 01:38:40;;;;;;;8.43;3.58;;;;;;;;;;5088380;28;20056;-67
2022/04/01 01:41:07;;;;;;;6.25;2.97;;;;;;;;;;5088445;28;20096;-66
2022/04/01 01:43:33;;;;;;;7.28;2.92;;;;;;;;;;5072580;28;20272;-66
2022/04/01 01:46:00;;;;;;;5.38;3.13;;;;;;;;;;5088975;28;20151;-66
2022/04/01 01:48:26;;;;;;;7.03;3.60;;;;;;;;;;5088647;28;20059;-67
2022/04/01 01:56:23;;;;;;;5.75;2.88;;;;;;;;;;5069530;28;20814;-66
2022/04/01 01:58:49;;;;;;;6.22;3.00;;;;;;;;;;5070465;28;20141;-67
2022/04/01 02:01:15;;;;;;;7.70;2.92;;;;;;;;;;5079497;28;20049;-64
2022/04/01 02:03:42;;;;;;;5.15;2.65;;;;;;;;;;5084189;28;20852;-66
2022/04/01 02:06:09;;;;;;;4.85;2.45;;;;;;;;;;5088465;28;20144;-66
2022/04/01 02:08:36;;;;;;;10.98;4.00;;;;;;;;;;5088420;28;20159;-67
2022/04/01 02:11:02;;;;;;;4.95;2.55;;;;;;;;;;5087529;28;20136;-67
2022/04/01 02:13:29;;;;;;;5.25;3.10;;;;;;;;;;5074486;28;20081;-66
2022/04/01 02:15:56;;;;;;;5.05;2.67;;;;;;;;;;5071109;28;20057;-67
2022/04/01 02:18:22;;;;;;;6.18;2.53;;;;;;;;;;5069217;28;20526;-66
2022/04/01 02:20:50;;;;;;;7.43;2.95;;;;;;;;;;5072566;28;20144;-66
2022/04/01 02:23:16;;;;;;;8.63;2.58;;;;;;;;;;5077191;28;20082;-66
2022/04/01 02:25:43;;;;;;;6.28;3.35;;;;;;;;;;5084120;28;20131;-66
2022/04/01 02:28:11;;;;;;;5.57;2.47;;;;;;;;;;5069488;28;20140;-66
2022/04/01 02:30:39;;;;;;;3.55;1.50;;;;;;;;;;5073900;28;20049;-66
2022/04/01 02:33:08;;;;;;;6.88;2.35;;;;;;;;;;5086693;28;20430;-66
2022/04/01 02:35:34;;;;;;;4.32;2.15;;;;;;;;;;5088258;28;20493;-66
2022/04/01 02:38:01;;;;;;;5.30;2.40;;;;;;;;;;5088535;28;20140;-66
2022/04/01 02:40:28;;;;;;;4.85;2.45;;;;;;;;;;5088420;28;20114;-66
2022/04/01 02:42:54;;;;;;;5.72;2.83;;;;;;;;;;5081481;28;20136;-66
2022/04/01 02:45:22;;;;;;;6.93;2.95;;;;;;;;;;5071031;28;20144;-66
2022/04/01 02:47:48;;;;;;;5.65;2.90;;;;;;;;;;5076703;28;20140;-66
2022/04/01 02:50:14;;;;;;;7.20;2.92;;;;;;;;;;5071806;28;20147;-66
2022/04/01 02:52:41;;;;;;;7.63;2.55;;;;;;;;;;5083707;28;20435;-66
2022/04/01 02:55:07;;;;;;;7.80;2.58;;;;;;;;;;5067062;28;20140;-66
2022/04/01 02:57:34;;;;;;;7.65;2.85;;;;;;;;;;5067933;28;20084;-66
2022/04/01 03:00:00;;;;;;;6.05;2.67;;;;;;;;;;5081730;28;20049;-66
2022/04/01 03:02:27;;;;;;;6.03;2.58;;;;;;;;;;5068847;28;20565;-66
2022/04/01 03:04:53;;;;;;;6.10;2.75;;;;;;;;;;5077664;28;20107;-66
2022/04/01 03:07:19;;;;;;;5.15;2.42;;;;;;;;;;5072786;28;20056;-66
2022/04/01 03:09:46;;;;;;;6.50;2.38;;;;;;;;;;5087833;28;20581;-67
2022/04/01 03:12:12;;;;;;;6.72;2.65;;;;;;;;;;5088048;28;20059;-67
2022/04/01 03:14:38;;;;;;;6.82;2.53;;;;;;;;;;5069805;28;20053;-66
2022/04/01 03:17:05;;;;;;;5.03;2.50;;;;;;;;;;5084400;28;20145;-66
2022/04/01 03:19:31;;;;;;;4.65;2.17;;;;;;;;;;5077527;28;20144;-66
2022/04/01 03:21:58;;;;;;;9.20;2.55;;;;;;;;;;5080575;28;20152;-66
2022/04/01 03:24:24;;;;;;;6.13;2.97;;;;;;;;;;5081212;28;20045;-66
2022/04/01 03:26:50;;;;;;;5.55;2.55;;;;;;;;;;5068676;28;20079;-66
2022/04/01 03:29:17;;;;;;;4.68;2.00;;;;;;;;;;5065909;28;20509;-66
2022/04/01 03:31:45;;;;;;;5.10;2.65;;;;;;;;;;5068655;28;20103;-66
2022/04/01 03:34:12;;;;;;;;;;;;;;;;;;5076925;28;20088;-65
2022/04/01 03:36:39;;;;;;;5.90;2.63;;;;;;;;;;5078469;28;46488;-65
2022/04/01 03:39:06;;;;;;;5.60;2.47;;;;;;;;;;5087137;28;20080;-66
2022/04/01 03:41:33;;;;;;;7.32;2.30;;;;;;;;;;5077528;28;20063;-66
2022/04/01 03:44:00;;;;;;;7.75;2.95;;;;;;;;;;5075653;28;20503;-66
2022/04/01 03:46:30;;;;;;;6.50;2.22;;;;;;;;;;5073555;28;20581;-66
2022/04/01 03:48:56;;;;;;;;;;;;;;;;;;5072987;28;20302;-66
2022/04/01 03:51:25;;;;;;;4.28;2.08;;;;;;;;;;5066063;28;44706;-66
2022/04/01 03:53:55;;;;;;;6.15;2.88;;;;;;;;;;5068084;28;20660;-66
2022/04/01 03:56:23;;;;;;;4.03;2.03;;;;;;;;;;5078237;28;20376;-66
2022/04/01 03:58:49;;;;;;;5.32;2.50;;;;;;;;;;5086642;28;20152;-66
2022/04/01 04:01:16;;;;;;;8.30;2.17;;;;;;;;;;5086698;28;20139;-66
2022/04/01 04:03:44;;;;;;;6.55;2.58;;;;;;;;;;5085573;28;20060;-66
2022/04/01 04:06:10;;;;;;;5.10;2.92;;;;;;;;;;5087752;28;20118;-68
2022/04/01 04:08:38;;;;;;;5.15;2.22;;;;;;;;;;5078484;28;20064;-66
2022/04/01 04:11:04;;;;;;;5.03;2.35;;;;;;;;;;5066668;28;20053;-66
2022/04/01 04:13:31;;;;;;;4.35;2.17;;;;;;;;;;5066739;28;22217;-67
2022/04/01 04:16:13;;;;;;;5.53;2.40;;;;;;;;;;5066669;28;20148;-67
2022/04/01 04:18:42;;;;;;;6.50;3.35;;;;;;;;;;5081440;28;20068;-67
2022/04/01 04:21:10;;;;;;;;;;;;;;;;;;5083340;28;20140;-66
2022/04/01 04:23:45;;;;;;;6.50;2.83;;;;;;;;;;5078654;28;45649;-65
2022/04/01 04:26:13;;;;;;;3.95;2.03;;;;;;;;;;5086361;28;20048;-65
2022/04/01 04:28:40;;;;;;;5.32;2.60;;;;;;;;;;5082798;28;20057;-65
2022/04/01 04:31:08;;;;;;;5.15;2.70;;;;;;;;;;5084447;28;20136;-65
2022/04/01 04:33:38;;;;;;;125.65;8.98;;;;;;;;;;5077151;28;20139;-65
2022/04/01 04:36:04;;;;;;;4.95;2.33;;;;;;;;;;5080641;28;20049;-67
2022/04/01 04:38:35;;;;;;;11.73;2.90;;;;;;;;;;5070560;28;20045;-64
2022/04/01 04:41:01;;;;;;;5.32;2.42;;;;;;;;;;5066667;28;20063;-64
2022/04/01 04:43:28;;;;;;;7.07;2.72;;;;;;;;;;5066808;28;20044;-64
2022/04/01 04:45:58;;;;;;;3.83;2.08;;;;;;;;;;5065851;28;20053;-65
2022/04/01 04:48:26;;;;;;;5.35;2.60;;;;;;;;;;5069876;28;20072;-65
2022/04/01 04:50:53;;;;;;;8.27;2.95;;;;;;;;;;5070144;28;20499;-65
2022/04/01 04:53:20;;;;;;;6.25;2.60;;;;;;;;;;5065603;28;20144;-65
2022/04/01 04:55:47;;;;;;;5.55;2.30;;;;;;;;;;5070972;28;20056;-66
2022/04/01 04:58:14;;;;;;;9.55;2.78;;;;;;;;;;5085599;28;20553;-66
2022/04/01 05:00:45;;;;;;;6.78;2.38;;;;;;;;;;5067796;28;20069;-66
2022/04/01 05:03:30;;;;;;;4.75;2.17;;;;;;;;;;5079921;28;20053;-66
2022/04/01 05:05:58;;;;;;;3.75;1.95;;;;;;;;;;5065985;28;20095;-65
2022/04/01 05:08:44;;;;;;;7.25;2.90;;;;;;;;;;5068015;28;20080;-65
2022/04/01 05:11:18;;;;;;;5.40;2.33;;;;;;;;;;5070341;28;20740;-66
2022/04/01 05:13:45;;;;;;;5.10;2.13;;;;;;;;;;5068615;28;20081;-65
2022/04/01 05:16:20;;;;;;;6.43;2.50;;;;;;;;;;5080958;28;20506;-66
2022/04/01 05:18:50;;;;;;;6.82;2.15;;;;;;;;;;5073352;28;20503;-65
2022/04/01 05:21:23;;;;;;;5.18;2.17;;;;;;;;;;5072179;28;20139;-65
2022/04/01 05:23:56;;;;;;;4.97;2.03;;;;;;;;;;5077559;28;20148;-65
2022/04/01 05:26:38;;;;;;;5.88;2.03;;;;;;;;;;5082611;28;20056;-65
2022/04/01 05:29:09;;;;;;;5.70;2.08;;;;;;;;;;5076022;28;20112;-65
2022/04/01 05:31:37;;;;;;;3.75;1.60;;;;;;;;;;5069808;28;20095;-65
2022/04/01 05:34:08;;;;;;;1228.00;76.35;;;;;;;;;;5073801;28;20174;-65
2022/04/01 05:36:41;;;;;;;277.77;17.23;;;;;;;;;;5089948;28;20048;-66
2022/04/01 05:39:09;;;;;;;63.78;4.13;;;;;;;;;;5089293;28;20556;-66
2022/04/01 05:41:35;;;;;;;11.50;2.60;;;;;;;;;;5089040;28;20053;-65
2022/04/01 05:44:03;;;;;;;5.85;2.10;;;;;;;;;;5090312;28;20154;-65
2022/04/01 05:46:30;;;;;;;5.30;2.63;;;;;;;;;;5090194;28;20160;-66
2022/04/01 05:48:57;;;;;;;108.25;6.95;;;;;;;;;;5074775;28;20084;-66
2022/04/01 05:51:24;;;;;;;4.18;2.25;;;;;;;;;;5069239;28;20096;-65
2022/04/01 05:53:51;;;;;;;6.60;1.77;;;;;;;;;;5073267;28;20510;-65
2022/04/01 05:56:18;;;;;;;6.82;2.03;;;;;;;;;;5081768;28;20199;-66
2022/04/01 05:58:44;;;;;;;12.02;2.17;;;;;;;;;;5089150;28;20589;-66
2022/04/01 06:01:17;;;;;;;3.60;1.73;;;;;;;;;;5081209;28;20483;-65
2022/04/01 06:04:02;;;;;;;16.35;3.10;;;;;;;;;;5080820;28;20892;-66
2022/04/01 06:06:39;;;;;;;6.03;2.22;;;;;;;;;;5088211;28;20137;-66
2022/04/01 06:09:24;;;;;;;10.02;2.45;;;;;;;;;;5076553;28;20497;-66
2022/04/01 06:12:00;;;;;;;4.57;1.70;;;;;;;;;;5076550;28;20055;-65
2022/04/01 06:14:29;;;;;;;4.53;1.85;;;;;;;;;;5087851;28;20088;-65
2022/04/01 06:17:02;;;;;;;4.90;2.25;;;;;;;;;;5077256;28;20160;-65
2022/04/01 06:19:31;;;;;;;4.22;2.10;;;;;;;;;;5080019;28;20057;-69
2022/04/01 06:21:57;;;;;;;;;;;;;;;;;;5079983;28;20084;-65
2022/04/01 06:24:31;;;;;;;3.70;1.88;;;;;;;;;;5071459;28;45274;-65
2022/04/01 06:26:58;;;;;;;3.55;1.58;;;;;;;;;;5074087;28;20179;-65
2022/04/01 06:29:32;;;;;;;7.80;2.15;;;;;;;;;;5088746;28;20135;-65
2022/04/01 06:32:05;;;;;;;7.22;2.75;;;;;;;;;;5088449;28;20055;-63
2022/04/01 06:34:51;;;;;;;4.28;1.58;;;;;;;;;;5074385;28;20517;-63
2022/04/01 06:37:22;;;;;;;6.80;1.75;;;;;;;;;;5076523;28;20056;-63
2022/04/01 06:40:05;;;;;;;4.63;1.83;;;;;;;;;;5089590;28;20187;-62
2022/04/01 06:42:34;;;;;;;12.77;2.47;;;;;;;;;;5088500;28;20068;-64
2022/04/01 06:45:00;;;;;;;3.95;1.80;;;;;;;;;;5087587;28;20049;-62
2022/04/01 06:47:26;;;;;;;5.82;2.03;;;;;;;;;;5077840;28;20081;-63
2022/04/01 06:49:53;;;;;;;6.60;1.90;;;;;;;;;;5076846;28;20135;-63
2022/04/01 06:52:19;;;;;;;4.35;1.90;;;;;;;;;;5088142;28;20532;-63
2022/04/01 06:54:46;;;;;;;5.65;1.63;;;;;;;;;;5083654;28;20519;-63
2022/04/01 06:57:14;;;;;;;6.15;1.65;;;;;;;;;;5066860;28;20088;-63
2022/04/01 06:59:40;;;;;;;3.47;1.40;;;;;;;;;;5066996;28;20056;-64
2022/04/01 07:02:07;;;;;;;3.95;1.83;;;;;;;;;;5069941;28;20140;-63
2022/04/01 07:04:34;;;;;;;5.88;2.10;;;;;;;;;;5070725;28;20053;-64
2022/04/01 07:07:00;;;;;;;5.95;1.67;;;;;;;;;;5085003;28;20056;-64
2022/04/01 07:09:27;;;;;;;3.08;1.48;;;;;;;;;;5071818;28;20530;-64
2022/04/01 07:11:53;;;;;;;10.48;2.10;;;;;;;;;;5067272;28;20482;-64
2022/04/01 07:14:23;;;;;;;4.38;1.55;;;;;;;;;;5071019;28;20088;-64
2022/04/01 07:16:51;;;;;;;6.13;1.70;;;;;;;;;;5069328;28;20053;-64
2022/04/01 07:19:17;;;;;;;5.07;1.92;;;;;;;;;;5068807;28;20103;-64
2022/04/01 07:21:43;;;;;;;6.30;1.73;;;;;;;;;;5074507;28;20057;-64
2022/04/01 07:24:10;;;;;;;3.70;1.45;;;;;;;;;;5085876;28;20134;-64
2022/04/01 07:26:37;;;;;;;3.50;1.30;;;;;;;;;;5071386;28;20060;-64
2022/04/01 07:29:04;;;;;;;2.55;1.30;;;;;;;;;;5078046;28;20171;-64
2022/04/01 07:34:26;;;;;;;4.10;1.27;;;;;;;;;;5082785;28;20906;-63
2022/04/01 07:36:52;;;;;;;3.05;1.27;;;;;;;;;;5080192;28;20140;-64
2022/04/01 07:39:18;;;;;;;2.58;1.27;;;;;;;;;;5078570;28;20045;-64
2022/04/01 07:41:45;;;;;;;3.53;1.23;;;;;;;;;;5068437;28;20441;-64
2022/04/01 07:44:11;;;;;;;3.53;1.13;;;;;;;;;;5081803;28;20045;-64
2022/04/01 07:46:38;;;;;;;5.45;1.40;;;;;;;;;;5091730;28;20418;-64
2022/04/01 07:49:05;;;;;;;4.07;1.52;;;;;;;;;;5084986;27;20049;-64
2022/04/01 07:51:31;;;;;;;2.70;1.10;;;;;;;;;;5084201;28;20139;-65
2022/04/01 07:53:58;;;;;;;2.92;1.42;;;;;;;;;;5068400;28;20642;-64
2022/04/01 07:56:31;;;;;;;5.03;1.17;;;;;;;;;;5083991;28;20886;-65
2022/04/01 07:58:58;;;;;;;3.67;1.23;;;;;;;;;;5068615;28;20061;-65
2022/04/01 08:01:28;;;;;;;3.70;1.13;;;;;;;;;;5065291;28;20139;-65
2022/04/01 08:03:55;;;;;;;4.95;1.05;;;;;;;;;;5065750;28;20148;-64
2022/04/01 08:06:21;;;;;;;4.63;1.30;;;;;;;;;;5072305;28;21025;-65
2022/04/01 08:08:48;;;;;;;2.58;1.10;;;;;;;;;;5064872;28;20075;-65
2022/04/01 08:11:14;;;;;;;9.07;1.27;;;;;;;;;;5073207;28;20590;-65
2022/04/01 08:13:40;;;;;;;4.03;1.30;;;;;;;;;;5069324;28;20063;-64
2022/04/01 08:16:08;;;;;;;2.47;0.93;;;;;;;;;;5066334;28;20154;-64
2022/04/01 08:18:34;;;;;;;4.22;1.25;;;;;;;;;;5066295;28;20586;-64
2022/04/01 08:21:01;;;;;;;2.80;1.00;;;;;;;;;;5067778;28;20148;-64
2022/04/01 08:23:35;;;;;;;4.95;1.27;;;;;;;;;;5065257;28;20176;-63
2022/04/01 08:26:02;;;;;;;2.80;1.27;;;;;;;;;;5067364;28;20055;-62
2022/04/01 08:28:28;;;;;;;3.60;1.40;;;;;;;;;;5067599;28;20291;-63
2022/04/01 08:30:54;;;;;;;6.28;1.73;;;;;;;;;;5065541;28;20140;-63
2022/04/01 08:33:24;;;;;;;4.13;1.58;;;;;;;;;;5066030;28;20057;-63
2022/04/01 08:35:50;;;;;;;3.10;1.13;;;;;;;;;;5067770;28;20052;-63
2022/04/01 08:38:17;;;;;;;2.00;0.98;;;;;;;;;;5066019;28;20051;-63
2022/04/01 08:40:43;;;;;;;4.32;1.40;;;;;;;;;;5069180;28;20097;-63
2022/04/01 08:43:10;;;;;;;4.60;1.50;;;;;;;;;;5064896;28;20143;-63
2022/04/01 08:45:37;;;;;;;3.50;1.45;;;;;;;;;;5069826;28;20068;-63
2022/04/01 08:48:05;;;;;;;3.67;1.30;;;;;;;;;;5071753;28;20053;-62
2022/04/01 08:50:31;;;;;;;3.70;1.60;;;;;;;;;;5069506;28;20570;-62
2022/04/01 08:52:58;;;;;;;2.63;1.17;;;;;;;;;;5069292;28;20114;-62
2022/04/01 08:55:24;;;;;;;5.05;1.60;;;;;;;;;;5070673;28;20130;-66
2022/04/01 08:57:51;;;;;;;2.55;1.30;;;;;;;;;;5071242;28;20581;-64
2022/04/01 09:00:18;;;;;;;2.45;1.10;;;;;;;;;;5078493;28;20132;-64
2022/04/01 09:02:53;;;;;;;2.97;1.35;;;;;;;;;;5071777;28;20045;-64
2022/04/01 09:05:19;;;;;;;2.80;1.13;;;;;;;;;;5082224;28;20071;-64
2022/04/01 09:07:46;;;;;;;3.42;1.20;;;;;;;;;;5079832;28;20147;-64
2022/04/01 09:10:12;;;;;;;3.28;1.10;;;;;;;;;;5088289;28;20131;-64
2022/04/01 09:12:50;;;;;;;2.80;1.17;;;;;;;;;;5089742;28;20056;-65
2022/04/01 09:15:16;;;;;;;2.67;1.10;;;;;;;;;;5083809;28;20088;-65
2022/04/01 09:17:43;;;;;;;4.63;1.48;;;;;;;;;;5074042;28;20088;-64
2022/04/01 09:20:10;;;;;;;3.95;1.30;;;;;;;;;;5068533;28;20053;-64
2022/04/01 09:22:37;;;;;;;4.88;1.30;;;;;;;;;;5070802;28;20144;-64
2022/04/01 09:25:11;;;;;;;2.35;1.20;;;;;;;;;;5082330;28;20048;-66
2022/04/01 09:27:53;;;;;;;4.18;1.48;;;;;;;;;;5078570;28;20057;-64
2022/04/01 09:30:28;;;;;;;9.88;1.20;;;;;;;;;;5069423;28;20049;-64
2022/04/01 09:32:56;;;;;;;2.70;1.10;;;;;;;;;;5071973;28;20076;-64
2022/04/01 09:35:24;;;;;;;3.50;1.55;;;;;;;;;;5070822;28;20080;-64
2022/04/01 09:37:52;;;;;;;5.53;1.27;;;;;;;;;;5075123;28;20619;-64
2022/04/01 09:40:20;;;;;;;2.77;1.00;;;;;;;;;;5069442;28;20517;-64
2022/04/01 09:42:57;;;;;;;6.50;1.65;;;;;;;;;;5069714;28;20359;-64
2022/04/01 09:45:25;;;;;;;3.20;1.23;;;;;;;;;;5069003;28;20148;-64
2022/04/01 09:47:59;;;;;;;1.35;0.93;;;;;;;;;;5073237;28;20060;-64
2022/04/01 09:50:30;;;;;;;4.20;1.20;;;;;;;;;;5069300;28;20059;-65
2022/04/01 09:53:08;;;;;;;4.57;1.25;;;;;;;;;;5068722;28;20059;-65
2022/04/01 09:55:36;;;;;;;4.00;1.40;;;;;;;;;;5068834;28;20049;-65
2022/04/01 09:58:03;;;;;;;3.28;1.40;;;;;;;;;;5068378;28;21496;-65
2022/04/01 10:00:30;;;;;;;4.00;1.55;;;;;;;;;;5068347;28;20080;-65
2022/04/01 10:02:56;;;;;;;4.90;1.40;;;;;;;;;;5078042;28;20136;-65
2022/04/01 10:05:22;;;;;;;3.45;1.40;;;;;;;;;;5079189;28;20619;-65
2022/04/01 10:07:49;;;;;;;3.88;1.42;;;;;;;;;;5068916;28;20085;-65
2022/04/01 10:10:15;;;;;;;4.05;1.58;;;;;;;;;;5081976;28;20056;-65
2022/04/01 10:12:43;;;;;;;5.28;1.60;;;;;;;;;;5088808;28;20057;-66
2022/04/01 10:15:10;;;;;;;4.05;1.40;;;;;;;;;;5081923;28;20128;-65
2022/04/01 10:17:54;;;;;;;3.72;1.55;;;;;;;;;;5073529;28;20075;-65
2022/04/01 10:20:21;;;;;;;4.18;2.22;;;;;;;;;;5069025;28;20115;-65
2022/04/01 10:22:48;;;;;;;3.47;1.60;;;;;;;;;;5068701;28;20122;-66
2022/04/01 10:25:15;;;;;;;5.63;1.98;;;;;;;;;;5078314;28;20084;-65
2022/04/01 10:27:44;;;;;;;4.40;1.85;;;;;;;;;;5089406;28;20072;-66
2022/04/01 10:30:11;;;;;;;5.40;2.03;;;;;;;;;;5088006;28;20882;-65
2022/04/01 10:32:42;;;;;;;6.10;1.95;;;;;;;;;;5083555;28;20099;-66
2022/04/01 10:35:28;;;;;;;5.20;2.10;;;;;;;;;;5087884;28;20600;-65
2022/04/01 10:38:07;;;;;;;3.90;1.95;;;;;;;;;;5073854;28;20045;-66
2022/04/01 10:40:35;;;;;;;8.07;2.30;;;;;;;;;;5070870;28;20514;-65
2022/04/01 10:43:11;;;;;;;5.30;2.20;;;;;;;;;;5088808;28;20566;-65
2022/04/01 10:45:39;;;;;;;5.45;2.05;;;;;;;;;;5088758;28;20059;-65
2022/04/01 10:51:36;;;;;;;3.85;1.77;;;;;;;;;;5071376;28;20053;-65
2022/04/01 10:54:23;;;;;;;4.82;1.88;;;;;;;;;;5070914;28;20076;-65
2022/04/01 10:56:56;;;;;;;4.18;1.77;;;;;;;;;;5071013;28;20067;-65
2022/04/01 10:59:23;;;;;;;3.78;1.80;;;;;;;;;;5068100;28;20049;-65
2022/04/01 11:01:52;;;;;;;4.28;1.85;;;;;;;;;;5068011;28;20168;-65
2022/04/01 11:04:19;;;;;;;3.97;1.90;;;;;;;;;;5070118;28;20641;-65
2022/04/01 11:07:05;;;;;;;6.20;2.65;;;;;;;;;;5070373;28;20053;-65
2022/04/01 11:09:31;;;;;;;4.20;2.20;;;;;;;;;;5086114;28;20102;-65
2022/04/01 11:12:16;;;;;;;4.10;1.92;;;;;;;;;;5067680;28;20077;-65
2022/04/01 11:14:55;;;;;;;7.47;2.63;;;;;;;;;;5067425;28;20056;-65
2022/04/01 11:17:26;;;;;;;6.38;2.90;;;;;;;;;;5081869;28;20135;-65
2022/04/01 11:20:05;;;;;;;6.43;2.35;;;;;;;;;;5086990;28;20052;-65
2022/04/01 11:22:36;;;;;;;4.43;2.17;;;;;;;;;;5079227;28;20140;-65
2022/04/01 11:25:03;;;;;;;5.05;2.42;;;;;;;;;;5072735;28;20245;-63
2022/04/01 11:27:30;;;;;;;6.13;2.92;;;;;;;;;;5067085;28;20149;-64
2022/04/01 11:30:07;;;;;;;10.43;2.90;;;;;;;;;;5072463;28;20139;-64
2022/04/01 11:32:37;;;;;;;6.72;3.00;;;;;;;;;;5079072;28;20060;-64
2022/04/01 11:35:04;;;;;;;7.18;2.75;;;;;;;;;;5078562;28;20237;-65
2022/04/01 11:37:40;;;;;;;7.05;2.67;;;;;;;;;;5080084;28;20585;-65
2022/04/01 11:40:16;;;;;;;6.25;3.22;;;;;;;;;;5078261;28;20547;-65
2022/04/01 11:42:53;;;;;;;6.88;2.75;;;;;;;;;;5071814;28;20080;-64
2022/04/01 11:45:20;;;;;;;7.03;2.92;;;;;;;;;;5073488;28;20063;-64
2022/04/01 11:47:46;;;;;;;7.93;2.80;;;;;;;;;;5081249;28;20852;-63
2022/04/01 11:50:14;;;;;;;4.93;2.63;;;;;;;;;;5080978;28;20497;-64
2022/04/01 11:52:41;;;;;;;7.50;2.65;;;;;;;;;;5073276;28;20052;-64
2022/04/01 11:55:27;;;;;;;6.25;2.88;;;;;;;;;;5084389;28;20044;-65
2022/04/01 11:57:55;;;;;;;6.53;3.03;;;;;;;;;;5080114;28;20190;-64
2022/04/01 12:00:25;;;;;;;6.15;2.88;;;;;;;;;;5087137;28;20174;-64
2022/04/01 12:02:52;;;;;;;6.88;2.80;;;;;;;;;;5083678;28;20055;-64
2022/04/01 12:05:19;;;;;;;6.05;2.65;;;;;;;;;;5083194;27;20062;-64
2022/04/01 12:10:40;;;;;;;6.40;2.90;;;;;;;;;;5089099;28;20064;-63
2022/04/01 12:13:08;;;;;;;4.40;2.38;;;;;;;;;;5087832;27;20055;-63
2022/04/01 12:15:39;;;;;;;4.78;2.25;;;;;;;;;;5068041;28;20072;-63
2022/04/01 12:18:07;;;;;;;4.47;2.08;;;;;;;;;;5091049;27;20060;-63
2022/04/01 12:20:45;;;;;;;6.97;3.20;;;;;;;;;;5088010;28;20430;-63
2022/04/01 12:23:14;;;;;;;7.70;3.30;;;;;;;;;;5092306;28;20528;-63
2022/04/01 12:25:42;;;;;;;5.60;2.70;;;;;;;;;;5092884;27;20053;-64
2022/04/01 12:28:11;;;;;;;5.43;2.67;;;;;;;;;;5096519;28;20144;-64
2022/04/01 12:30:39;;;;;;;6.03;2.65;;;;;;;;;;5088829;28;20521;-63
2022/04/01 12:33:07;;;;;;;6.23;3.03;;;;;;;;;;5081077;28;20051;-64
2022/04/01 12:35:54;;;;;;;7.05;3.17;;;;;;;;;;5081775;28;20095;-66
2022/04/01 12:38:21;;;;;;;6.55;2.75;;;;;;;;;;5086839;28;20056;-63
2022/04/01 12:40:47;;;;;;;4.22;2.30;;;;;;;;;;5109422;28;20135;-63
2022/04/01 12:43:32;;;;;;;10.82;3.20;;;;;;;;;;5100684;27;20052;-64
2022/04/01 12:46:03;;;;;;;6.28;2.63;;;;;;;;;;5079608;28;20136;-65
2022/04/01 12:48:30;;;;;;;7.47;2.70;;;;;;;;;;5084788;28;20580;-65
2022/04/01 12:51:03;;;;;;;6.50;3.00;;;;;;;;;;5079306;28;20063;-65
2022/04/01 12:53:31;;;;;;;5.22;2.60;;;;;;;;;;5094570;27;20049;-65
2022/04/01 12:56:20;;;;;;;6.32;3.13;;;;;;;;;;5084589;28;20080;-65
2022/04/01 12:58:47;;;;;;;4.90;2.38;;;;;;;;;;5105562;28;20627;-65
2022/04/01 13:01:17;;;;;;;7.38;2.60;;;;;;;;;;5081912;28;20052;-65
2022/04/01 13:03:50;;;;;;;4.28;2.22;;;;;;;;;;5091371;28;20538;-66
2022/04/01 13:06:16;;;;;;;6.57;2.20;;;;;;;;;;5073376;28;20053;-65
2022/04/01 13:08:43;;;;;;;6.47;2.08;;;;;;;;;;5105618;28;20504;-65
2022/04/01 13:11:14;;;;;;;5.30;2.20;;;;;;;;;;5082051;28;20044;-65
2022/04/01 13:13:40;;;;;;;3.63;1.80;;;;;;;;;;5080787;28;20135;-65
2022/04/01 13:16:07;;;;;;;5.70;2.28;;;;;;;;;;5086313;28;20059;-65
2022/04/01 13:18:34;;;;;;;3.78;1.77;;;;;;;;;;5074943;28;20059;-65
2022/04/01 13:21:01;;;;;;;4.53;1.90;;;;;;;;;;5092739;27;21011;-65
2022/04/01 13:23:28;;;;;;;4.55;1.80;;;;;;;;;;5074163;28;20129;-65
2022/04/01 13:25:54;;;;;;;4.30;1.55;;;;;;;;;;5075474;28;20076;-65
2022/04/01 13:28:21;;;;;;;2.40;1.50;;;;;;;;;;5071841;28;20044;-65
2022/04/01 13:30:47;;;;;;;4.57;1.98;;;;;;;;;;5086597;28;20523;-65
2022/04/01 13:33:15;;;;;;;5.32;1.67;;;;;;;;;;5088247;28;20113;-65
2022/04/01 13:35:42;;;;;;;2.97;1.60;;;;;;;;;;5087367;27;21166;-65
2022/04/01 13:38:09;;;;;;;5.32;1.73;;;;;;;;;;5090758;28;20286;-64
2022/04/01 13:40:36;;;;;;;2.85;1.60;;;;;;;;;;5075466;28;20060;-64
2022/04/01 13:43:03;;;;;;;3.28;1.45;;;;;;;;;;5094036;27;20546;-65
2022/04/01 13:45:39;;;;;;;5.97;1.58;;;;;;;;;;5088535;28;20528;-66
2022/04/01 13:48:07;;;;;;;3.40;1.40;;;;;;;;;;5103172;28;20129;-65
2022/04/01 13:50:34;;;;;;;3.80;1.70;;;;;;;;;;5092588;27;20052;-65
2022/04/01 13:53:01;;;;;;;5.07;1.80;;;;;;;;;;5102642;27;20134;-65
2022/04/01 13:55:27;;;;;;;2.90;1.38;;;;;;;;;;5072055;28;20056;-66
2022/04/01 13:57:59;;;;;;;5.68;1.70;;;;;;;;;;5101372;28;20241;-65
2022/04/01 14:00:26;;;;;;;7.32;1.73;;;;;;;;;;5105729;27;20106;-65
2022/04/01 14:02:52;;;;;;;4.45;1.80;;;;;;;;;;5090333;27;20139;-65
2022/04/01 14:05:18;;;;;;;4.03;1.40;;;;;;;;;;5101850;27;20056;-65
2022/04/01 14:07:45;;;;;;;3.85;1.58;;;;;;;;;;5098617;28;20048;-65
2022/04/01 14:10:11;;;;;;;2.03;1.15;;;;;;;;;;5093897;27;20076;-65
2022/04/01 14:12:38;;;;;;;2.38;1.27;;;;;;;;;;5085436;28;20061;-65
2022/04/01 14:15:05;;;;;;;3.20;1.08;;;;;;;;;;5078034;28;20147;-65
2022/04/01 14:17:33;;;;;;;5.82;1.30;;;;;;;;;;5099949;27;20130;-65
2022/04/01 14:20:00;;;;;;;2.15;1.20;;;;;;;;;;5100828;28;20136;-65
2022/04/01 14:22:26;;;;;;;3.67;1.40;;;;;;;;;;5091610;27;20589;-65
2022/04/01 14:24:53;;;;;;;4.18;1.40;;;;;;;;;;5105423;28;20080;-65
2022/04/01 14:27:19;;;;;;;1.75;1.00;;;;;;;;;;5092636;28;20142;-65
2022/04/01 14:32:30;;;;;;;4.40;1.55;;;;;;;;;;5087804;28;20237;-65
2022/04/01 14:34:58;;;;;;;1.92;1.05;;;;;;;;;;5099590;27;20052;-65
2022/04/01 14:37:25;;;;;;;2.25;1.23;;;;;;;;;;5100145;27;20049;-64
2022/04/01 14:39:53;;;;;;;2.75;1.40;;;;;;;;;;5100836;27;20056;-66
2022/04/01 14:42:19;;;;;;;4.22;1.60;;;;;;;;;;5083135;27;20049;-64
2022/04/01 14:44:45;;;;;;;3.42;1.45;;;;;;;;;;5086242;28;20057;-64
2022/04/01 14:47:12;;;;;;;2.30;1.20;;;;;;;;;;5088150;27;20053;-64
2022/04/01 14:49:38;;;;;;;2.65;1.10;;;;;;;;;;5088877;28;20148;-63
2022/04/01 14:52:06;;;;;;;4.63;1.55;;;;;;;;;;5093774;27;20060;-64
2022/04/01 14:54:32;;;;;;;1.52;0.90;;;;;;;;;;5085367;28;20114;-63
2022/04/01 14:56:59;;;;;;;5.90;1.60;;;;;;;;;;5104725;27;20588;-63
2022/04/01 14:59:25;;;;;;;3.35;1.55;;;;;;;;;;5087693;28;20060;-64
2022/04/01 15:01:52;;;;;;;5.45;1.73;;;;;;;;;;5100220;28;20048;-63
2022/04/01 15:04:19;;;;;;;2.17;1.15;;;;;;;;;;5088005;27;20499;-63
2022/04/01 15:06:46;;;;;;;3.83;1.60;;;;;;;;;;5071081;28;20049;-63
2022/04/01 15:09:12;;;;;;;2.97;1.50;;;;;;;;;;5087326;28;20053;-63